Time;durP1;ratioP1;P1;durP2;ratioP2;P2;SDS_P1;SDS_P2;PMS_P1;PMS_P2;Temp;Humidity;BMP_temperature;BMP_pressure;BME280_temperature;BME280_humidity;BME280_pressure;Samples;Min_cycle;Max_cycle;Signal;HPM_P1;HPM_P2
2021/06/04 00:00:51;;;;;;;5.83;3.47;;;;;;;15.18;72.80;101736.23;1721407;82;21202;-73
2021/06/04 00:03:26;;;;;;;8.50;3.17;;;;;;;15.20;72.88;101732.59;1718360;83;21165;-73
2021/06/04 00:05:59;;;;;;;6.37;3.30;;;;;;;15.25;72.98;101727.59;1718532;83;21169;-71
2021/06/04 00:08:34;;;;;;;11.40;3.80;;;;;;;15.24;73.05;101727.31;1740087;82;21319;-73
2021/06/04 00:11:16;;;;;;;11.30;3.33;;;;;;;15.23;73.08;101724.23;1740105;82;21340;-73
2021/06/04 00:13:58;;;;;;;6.90;3.75;;;;;;;15.23;73.08;101724.23;1740082;82;21244;-72
2021/06/04 00:16:39;;;;;;;7.25;3.65;;;;;;;15.23;73.19;101725.09;1739797;82;21189;-71
2021/06/04 00:19:15;;;;;;;6.70;3.40;;;;;;;15.25;73.31;101734.05;1733239;82;21280;-71
2021/06/04 00:21:53;;;;;;;11.95;4.15;;;;;;;15.30;73.28;101731.84;1728965;83;21504;-73
2021/06/04 00:24:29;;;;;;;8.08;3.25;;;;;;;15.31;73.21;101735.78;1723828;83;21373;-73
2021/06/04 00:27:03;;;;;;;5.87;2.77;;;;;;;15.30;73.17;101728.50;1728896;82;21185;-71
2021/06/04 00:29:37;;;;;;;6.95;3.15;;;;;;;15.25;73.26;101729.85;1728915;82;21260;-72
2021/06/04 00:32:10;;;;;;;7.05;3.42;;;;;;;15.22;73.23;101740.16;1728904;83;21375;-71
2021/06/04 00:34:45;;;;;;;6.80;3.22;;;;;;;15.20;73.20;101726.14;1728763;83;21343;-71
2021/06/04 00:37:18;;;;;;;6.70;3.77;;;;;;;15.21;73.21;101734.86;1728875;82;21331;-73
2021/06/04 00:39:52;;;;;;;8.05;2.98;;;;;;;15.23;73.15;101729.83;1736385;81;21392;-72
2021/06/04 00:42:28;;;;;;;8.38;3.83;;;;;;;15.21;72.92;101737.08;1787221;79;21301;-70
2021/06/04 00:45:02;;;;;;;5.40;3.10;;;;;;;15.22;72.84;101734.56;1773764;81;21194;-68
2021/06/04 00:47:35;;;;;;;9.78;3.12;;;;;;;15.23;72.84;101739.08;1773891;81;21191;-70
2021/06/04 00:50:13;;;;;;;5.15;3.12;;;;;;;15.23;72.75;101733.48;1773665;80;21182;-69
2021/06/04 00:52:47;;;;;;;6.40;3.47;;;;;;;15.26;72.72;101736.27;1773732;81;21337;-70
2021/06/04 00:55:20;;;;;;;5.22;3.45;;;;;;;15.28;72.71;101736.30;1774040;81;21211;-71
2021/06/04 00:57:53;;;;;;;7.55;4.08;;;;;;;15.29;72.59;101735.22;1773788;81;21227;-70
2021/06/04 01:00:43;;;;;;;6.45;3.58;;;;;;;15.25;72.51;101738.25;1773963;81;21174;-70
2021/06/04 01:03:15;;;;;;;9.80;3.60;;;;;;;15.21;72.53;101732.06;1773919;81;21850;-70
2021/06/04 01:05:53;;;;;;;5.03;3.12;;;;;;;15.19;72.63;101734.25;1773772;81;21440;-68
2021/06/04 01:08:47;;;;;;;9.08;3.45;;;;;;;15.16;72.60;101728.63;1773712;81;21199;-70
2021/06/04 01:11:29;;;;;;;6.50;3.67;;;;;;;15.14;72.67;101733.66;1772637;81;21321;-69
2021/06/04 01:14:39;;;;;;;8.50;3.90;;;;;;;15.14;72.67;101733.66;1773684;81;21198;-69
2021/06/04 01:17:29;;;;;;;7.03;3.45;;;;;;;15.10;72.64;101737.26;1773677;81;21348;-71
2021/06/04 01:20:22;;;;;;;9.05;3.85;;;;;;;15.03;72.75;101737.45;1773522;80;21383;-70
2021/06/04 01:23:19;;;;;;;4.10;3.12;;;;;;;15.00;72.99;101736.61;1796112;79;21305;-70
2021/06/04 01:26:03;;;;;;;11.73;4.15;;;;;;;15.03;72.96;101738.86;1805669;79;21198;-69
2021/06/04 01:28:43;;;;;;;6.58;3.50;;;;;;;15.00;72.85;101738.00;1805953;79;21906;-68
2021/06/04 01:31:42;;;;;;;6.55;4.10;;;;;;;14.97;72.74;101735.72;1804753;79;21171;-70
2021/06/04 01:34:36;;;;;;;7.90;3.25;;;;;;;14.91;72.84;101739.56;1804296;79;21182;-69
2021/06/04 01:37:16;;;;;;;;;;;;;;;14.90;72.87;101741.25;1793831;79;21731;-70
2021/06/04 01:39:59;;;;;;;10.23;3.92;;;;;;;14.91;73.07;101744.33;1793700;79;20280;-69
2021/06/04 01:42:40;;;;;;;11.88;4.08;;;;;;;14.88;73.15;101743.45;1784897;79;21302;-71
2021/06/04 01:45:18;;;;;;;6.72;4.65;;;;;;;14.86;73.27;101746.50;1773719;81;21242;-70
2021/06/04 01:47:58;;;;;;;8.45;4.15;;;;;;;14.89;73.21;101745.98;1760258;81;21744;-70
2021/06/04 01:50:37;;;;;;;7.22;3.87;;;;;;;14.90;73.27;101756.06;1769078;81;21336;-68
2021/06/04 01:53:27;;;;;;;10.50;3.92;;;;;;;14.88;73.29;101753.23;1773929;81;21194;-68
2021/06/04 01:56:05;;;;;;;9.70;4.58;;;;;;;14.84;73.43;101751.52;1773811;81;21375;-70
2021/06/04 01:58:47;;;;;;;8.55;3.92;;;;;;;14.84;73.71;101749.30;1773872;81;21242;-69
2021/06/04 02:01:32;;;;;;;11.10;4.35;;;;;;;14.85;73.67;101752.37;1775493;79;21253;-68
2021/06/04 02:04:08;;;;;;;19.10;4.58;;;;;;;14.86;73.82;101761.05;1805516;79;21321;-69
2021/06/04 02:06:43;;;;;;;10.25;3.85;;;;;;;14.87;73.59;101763.59;1802091;79;21320;-70
2021/06/04 02:09:20;;;;;;;9.20;3.72;;;;;;;14.87;73.59;101763.59;1805549;79;21178;-68
2021/06/04 02:11:55;;;;;;;8.00;3.80;;;;;;;14.87;73.76;101758.00;1778002;79;21324;-69
2021/06/04 02:14:43;;;;;;;6.60;4.28;;;;;;;14.89;73.79;101762.77;1763987;81;21305;-70
2021/06/04 02:17:57;;;;;;;8.48;4.05;;;;;;;14.93;73.86;101763.09;1753247;81;21235;-70
2021/06/04 02:20:39;;;;;;;8.78;4.25;;;;;;;14.97;73.74;101765.09;1728326;83;21207;-71
2021/06/04 02:23:45;;;;;;;13.50;4.65;;;;;;;14.98;73.46;101758.95;1727967;83;21183;-68
2021/06/04 02:26:29;;;;;;;7.95;4.05;;;;;;;14.96;73.41;101762.00;1713372;83;21851;-70
2021/06/04 02:29:15;;;;;;;7.83;3.80;;;;;;;14.97;73.56;101762.29;1728333;83;21333;-70
2021/06/04 02:32:00;;;;;;;8.83;3.95;;;;;;;15.03;73.77;101765.43;1762197;81;21856;-68
2021/06/04 02:34:53;;;;;;;9.78;3.55;;;;;;;15.12;73.38;101768.60;1798405;79;21719;-73
2021/06/04 02:37:34;;;;;;;9.30;4.13;;;;;;;15.12;73.38;101768.60;1726692;82;21388;-73
2021/06/04 02:40:25;;;;;;;8.20;3.65;;;;;;;15.06;73.44;101763.52;1739692;80;21214;-75
2021/06/04 02:43:05;;;;;;;6.40;3.45;;;;;;;15.06;73.44;101763.52;1749330;81;21409;-75
2021/06/04 02:45:57;;;;;;;12.95;4.00;;;;;;;15.08;73.76;101772.48;1805606;79;21699;-72
2021/06/04 02:48:30;;;;;;;7.35;3.85;;;;;;;15.11;73.79;101770.58;1787766;79;21534;-72
2021/06/04 02:51:42;;;;;;;7.63;3.90;;;;;;;15.15;73.81;101765.30;1774120;80;21197;-72
2021/06/04 02:54:19;;;;;;;12.10;4.37;;;;;;;15.17;73.79;101768.12;1771583;81;21388;-72
2021/06/04 02:57:00;;;;;;;7.72;4.58;;;;;;;15.21;73.84;101765.63;1771892;79;21351;-75
2021/06/04 02:59:37;;;;;;;9.95;4.53;;;;;;;15.26;73.85;101769.31;1767466;80;21332;-72
2021/06/04 03:02:14;;;;;;;7.87;3.95;;;;;;;15.34;73.80;101775.03;1780676;79;21324;-73
2021/06/04 03:04:54;;;;;;;12.93;3.90;;;;;;;15.42;73.54;101771.73;1792259;79;21316;-70
2021/06/04 03:07:34;;;;;;;13.00;4.40;;;;;;;15.50;73.65;101774.03;1735406;83;21388;-73
2021/06/04 03:10:12;;;;;;;8.40;4.03;;;;;;;15.58;73.98;101774.39;1804090;79;21317;-72
2021/06/04 03:12:46;;;;;;;9.63;3.85;;;;;;;15.62;73.97;101778.36;1772857;79;21423;-75
2021/06/04 03:15:29;;;;;;;11.85;3.60;;;;;;;15.68;74.24;101780.09;1757815;81;21191;-72
2021/06/04 03:18:02;;;;;;;6.70;3.67;;;;;;;15.74;74.47;101779.02;1800706;79;21337;-72
2021/06/04 03:20:39;;;;;;;10.80;3.83;;;;;;;15.78;74.57;101781.59;1777283;79;21194;-74
2021/06/04 03:23:16;;;;;;;11.15;3.80;;;;;;;15.85;74.69;101779.94;1810853;79;21351;-75
2021/06/04 03:25:53;;;;;;;9.78;3.75;;;;;;;15.89;73.40;101780.53;1802869;79;21646;-70
2021/06/04 03:28:27;;;;;;;10.03;4.03;;;;;;;15.89;73.40;101780.53;1742422;82;21261;-70
2021/06/04 03:31:00;;;;;;;7.17;3.87;;;;;;;15.90;73.20;101785.05;1742930;82;21332;-68
2021/06/04 03:33:36;;;;;;;14.25;3.25;;;;;;;15.94;72.96;101780.56;1775686;81;21411;-71
2021/06/04 03:36:17;;;;;;;12.73;3.47;;;;;;;15.98;72.96;101776.67;1759974;81;21201;-71
2021/06/04 03:38:51;;;;;;;7.58;4.72;;;;;;;16.03;73.47;101779.80;1760455;81;21188;-68
2021/06/04 03:41:31;;;;;;;9.45;6.62;;;;;;;16.08;72.89;101785.98;1736782;82;21249;-71
2021/06/04 03:44:09;;;;;;;14.87;8.05;;;;;;;16.13;72.49;101784.08;1726735;83;21856;-68
2021/06/04 03:46:42;;;;;;;20.70;15.58;;;;;;;16.20;72.11;101788.02;1749355;82;21182;-67
2021/06/04 03:49:17;;;;;;;32.00;20.65;;;;;;;16.24;71.62;101784.98;1743287;82;21330;-69
2021/06/04 03:51:50;;;;;;;24.75;18.20;;;;;;;16.26;71.48;101779.94;1743226;82;21329;-69
2021/06/04 03:54:25;;;;;;;;;;;;;;;16.30;71.67;101781.95;1745728;82;21860;-70
2021/06/04 03:57:00;;;;;;;21.93;10.13;;;;;;;16.33;71.43;101777.76;1741485;82;20182;-68
2021/06/04 03:59:32;;;;;;;14.05;7.25;;;;;;;16.34;71.02;101776.06;1735071;82;21759;-70
2021/06/04 04:02:08;;;;;;;10.08;6.75;;;;;;;16.37;70.70;101778.88;1729217;82;21759;-68
2021/06/04 04:04:44;;;;;;;9.83;4.65;;;;;;;16.43;70.61;101781.20;1745615;81;21183;-69
2021/06/04 04:07:16;;;;;;;8.25;3.87;;;;;;;16.47;70.20;101781.20;1733150;82;21716;-67
2021/06/04 04:09:50;;;;;;;19.55;4.10;;;;;;;16.53;69.97;101777.89;1731568;82;21400;-68
2021/06/04 04:12:24;;;;;;;10.63;3.72;;;;;;;16.54;69.64;101780.97;1769953;80;21189;-69
2021/06/04 04:14:58;;;;;;;5.03;2.90;;;;;;;16.51;69.62;101777.33;1745027;82;21208;-74
2021/06/04 04:17:31;;;;;;;9.18;2.98;;;;;;;16.52;69.53;101778.43;1744807;82;21359;-77
2021/06/04 04:20:04;;;;;;;6.83;3.17;;;;;;;16.55;69.50;101775.09;1745149;82;21229;-76
2021/06/04 04:22:37;;;;;;;8.18;3.40;;;;;;;16.61;69.55;101766.13;1744907;82;21187;-79
2021/06/04 04:25:11;;;;;;;9.03;4.03;;;;;;;16.67;69.22;101768.70;1730364;82;21384;-73
2021/06/04 04:27:43;;;;;;;9.78;3.98;;;;;;;16.72;69.06;101770.67;1749170;81;21755;-73
2021/06/04 04:30:19;;;;;;;9.65;3.37;;;;;;;16.75;69.00;101770.11;1764406;81;21194;-75
2021/06/04 04:32:53;;;;;;;;;;;;;;;16.78;68.54;101772.37;1763723;81;21329;-77
2021/06/04 04:35:29;;;;;;;10.70;3.50;;;;;;;16.78;68.09;101775.19;1760136;81;20220;-74
2021/06/04 04:38:02;;;;;;;6.72;4.00;;;;;;;16.76;68.04;101772.65;1744718;82;21341;-75
2021/06/04 04:40:39;;;;;;;6.55;3.30;;;;;;;16.80;68.04;101779.95;1744772;82;21238;-71
2021/06/04 04:43:15;;;;;;;8.78;3.25;;;;;;;16.83;67.75;101783.05;1745787;81;21202;-76
2021/06/04 04:45:48;;;;;;;18.02;8.08;;;;;;;16.89;67.55;101781.12;1763071;81;21201;-74
2021/06/04 04:48:21;;;;;;;5.25;3.22;;;;;;;16.96;67.76;101783.93;1754200;81;21388;-74
2021/06/04 04:50:54;;;;;;;8.25;3.50;;;;;;;17.08;67.43;101780.31;1744838;82;21385;-74
2021/06/04 04:53:27;;;;;;;;;;;;;;;17.17;67.39;101781.48;1747342;82;21183;-76
2021/06/04 04:55:59;;;;;;;4.58;3.58;;;;;;;17.30;67.42;101785.15;1762830;81;20596;-73
2021/06/04 04:58:34;;;;;;;4.37;3.52;;;;;;;17.38;66.97;101789.41;1743337;82;21404;-67
2021/06/04 05:01:09;;;;;;;12.20;4.42;;;;;;;17.41;66.81;101788.84;1743501;82;21190;-70
2021/06/04 05:03:42;;;;;;;8.33;3.90;;;;;;;17.41;66.80;101787.44;1734112;82;21195;-75
2021/06/04 05:06:15;;;;;;;12.40;4.78;;;;;;;17.42;66.58;101789.12;1746491;82;21178;-75
2021/06/04 05:08:48;;;;;;;8.90;4.15;;;;;;;17.42;66.42;101785.77;1743190;82;21700;-74
2021/06/04 05:11:22;;;;;;;12.30;4.20;;;;;;;17.43;66.46;101789.42;1741580;82;21356;-75
2021/06/04 05:13:55;;;;;;;8.00;4.47;;;;;;;17.45;66.33;101795.59;1737777;82;21712;-75
2021/06/04 05:16:29;;;;;;;16.07;4.12;;;;;;;17.44;66.64;101795.32;1738313;81;21242;-74
2021/06/04 05:19:02;;;;;;;12.18;5.12;;;;;;;17.46;66.78;101800.09;1744794;81;21838;-73
2021/06/04 05:21:35;;;;;;;16.27;5.17;;;;;;;17.44;66.53;101803.75;1749223;82;21696;-78
2021/06/04 05:24:08;;;;;;;12.47;5.10;;;;;;;17.43;66.66;101810.49;1751690;82;21210;-73
2021/06/04 05:26:43;;;;;;;7.47;4.87;;;;;;;17.38;66.54;101808.49;1779657;79;21731;-72
2021/06/04 05:29:16;;;;;;;14.98;5.30;;;;;;;17.29;66.68;101819.11;1775648;79;21328;-71
2021/06/04 05:31:50;;;;;;;14.25;5.85;;;;;;;17.22;66.59;101812.92;1795048;79;21966;-73
2021/06/04 05:34:23;;;;;;;10.85;4.60;;;;;;;17.18;66.39;101818.83;1792098;79;21336;-71
2021/06/04 05:36:57;;;;;;;20.90;5.30;;;;;;;17.14;66.38;101826.11;1795377;79;21325;-71
2021/06/04 05:39:32;;;;;;;9.20;4.78;;;;;;;17.11;66.46;101820.48;1721544;82;21341;-72
2021/06/04 05:42:05;;;;;;;8.63;5.30;;;;;;;17.10;66.71;101827.22;1793309;79;21388;-72
2021/06/04 05:44:38;;;;;;;11.00;4.72;;;;;;;17.11;66.54;101826.09;1793904;79;21318;-75
2021/06/04 05:47:13;;;;;;;10.98;5.28;;;;;;;17.12;66.83;101825.55;1791676;79;21369;-75
2021/06/04 05:49:50;;;;;;;10.95;5.17;;;;;;;17.13;67.02;101831.44;1784135;79;21178;-75
2021/06/04 05:52:24;;;;;;;12.20;5.28;;;;;;;17.15;66.89;101826.38;1790445;79;21282;-75
2021/06/04 05:54:58;;;;;;;14.13;5.17;;;;;;;17.15;66.97;101832.00;1732869;82;21255;-72
2021/06/04 05:57:32;;;;;;;9.68;4.05;;;;;;;17.18;67.05;101831.46;1729736;82;21686;-74
2021/06/04 06:00:12;;;;;;;7.97;3.87;;;;;;;17.25;66.76;101837.66;1736127;82;21234;-74
2021/06/04 06:02:46;;;;;;;9.85;4.10;;;;;;;17.32;66.21;101839.63;1730758;82;21254;-74
2021/06/04 06:05:20;;;;;;;17.62;4.35;;;;;;;17.37;65.95;101835.44;1806087;79;21300;-77
2021/06/04 06:07:54;;;;;;;12.95;4.03;;;;;;;17.41;65.84;101837.98;1803438;79;21340;-76
2021/06/04 06:10:26;;;;;;;;;;;;;;;17.49;65.91;101836.06;1808350;79;21250;-73
2021/06/04 06:12:59;;;;;;;5.47;4.05;;;;;;;17.53;65.81;101833.81;1806915;79;20235;-74
2021/06/04 06:15:32;;;;;;;11.10;4.28;;;;;;;17.59;65.47;101837.46;1802491;79;21222;-76
2021/06/04 06:18:08;;;;;;;14.00;5.22;;;;;;;17.64;65.61;101839.73;1807297;79;21428;-74
2021/06/04 06:20:43;;;;;;;11.73;4.75;;;;;;;17.70;65.68;101838.62;1806159;79;21700;-75
2021/06/04 06:23:20;;;;;;;9.28;3.95;;;;;;;17.78;65.80;101836.65;1803297;78;21380;-75
2021/06/04 06:25:57;;;;;;;12.18;4.35;;;;;;;17.84;65.49;101841.14;1804047;79;21376;-74
2021/06/04 06:28:33;;;;;;;8.68;3.77;;;;;;;17.89;65.61;101840.30;1805759;79;21964;-76
2021/06/04 06:31:16;;;;;;;9.50;3.75;;;;;;;17.95;65.71;101844.25;1805902;79;21899;-74
2021/06/04 06:33:52;;;;;;;8.65;4.05;;;;;;;18.04;65.60;101832.70;1804242;79;21150;-74
2021/06/04 06:36:27;;;;;;;8.90;3.62;;;;;;;18.14;65.47;101838.88;1807830;79;21834;-74
2021/06/04 06:39:02;;;;;;;11.70;4.25;;;;;;;18.26;65.58;101836.06;1804765;79;21316;-74
2021/06/04 06:41:35;;;;;;;4.25;3.58;;;;;;;18.39;65.39;101841.14;1802067;79;21811;-76
2021/06/04 06:44:09;;;;;;;15.10;3.62;;;;;;;18.56;65.32;101837.45;1807484;79;21837;-75
2021/06/04 06:46:42;;;;;;;8.83;4.00;;;;;;;18.76;65.21;101833.16;1805771;78;21165;-74
2021/06/04 06:49:16;;;;;;;11.38;3.85;;;;;;;19.02;64.15;101831.91;1805679;79;21361;-75
2021/06/04 06:51:49;;;;;;;8.00;4.00;;;;;;;19.28;63.30;101829.30;1807323;79;21171;-75
2021/06/04 06:54:25;;;;;;;5.15;3.30;;;;;;;19.54;63.16;101830.82;1808301;79;21153;-76
2021/06/04 06:56:59;;;;;;;6.65;3.30;;;;;;;19.88;63.05;101828.85;1802132;79;21316;-77
2021/06/04 06:59:32;;;;;;;10.20;4.00;;;;;;;20.27;61.94;101822.63;1803159;79;21276;-76
2021/06/04 07:02:09;;;;;;;9.10;4.37;;;;;;;20.69;60.36;101828.38;1807947;79;21316;-78
2021/06/04 07:04:42;;;;;;;6.22;4.28;;;;;;;21.00;58.78;101827.45;1805313;79;21233;-78
2021/06/04 07:07:18;;;;;;;6.03;3.50;;;;;;;21.22;58.34;101822.91;1803784;79;21221;-77
2021/06/04 07:09:50;;;;;;;9.10;3.80;;;;;;;21.38;58.08;101817.88;1803997;79;21213;-76
2021/06/04 07:12:23;;;;;;;9.15;3.70;;;;;;;21.48;57.45;101821.98;1808245;79;21283;-75
2021/06/04 07:14:58;;;;;;;11.55;3.80;;;;;;;21.60;55.68;101828.02;1802181;79;21223;-75
2021/06/04 07:17:31;;;;;;;7.35;3.27;;;;;;;21.72;55.80;101822.77;1805952;77;21309;-74
2021/06/04 07:20:06;;;;;;;7.78;3.77;;;;;;;21.88;55.19;101829.87;1804676;79;21130;-75
2021/06/04 07:22:38;;;;;;;14.55;3.60;;;;;;;22.04;53.96;101829.87;1803959;79;21171;-77
2021/06/04 07:25:14;;;;;;;18.50;4.72;;;;;;;22.15;53.25;101828.55;1806790;79;21321;-75
2021/06/04 07:27:48;;;;;;;13.35;4.08;;;;;;;22.19;53.18;101836.10;1798819;79;21832;-77
2021/06/04 07:30:24;;;;;;;9.65;3.20;;;;;;;22.20;52.65;101844.03;1804352;79;21316;-74
2021/06/04 07:33:00;;;;;;;8.48;4.15;;;;;;;22.18;52.54;101837.26;1805062;79;21360;-75
2021/06/04 07:35:37;;;;;;;11.33;3.92;;;;;;;22.15;52.38;101837.05;1805010;79;21711;-75
2021/06/04 07:38:11;;;;;;;9.98;3.12;;;;;;;22.11;52.25;101837.37;1805005;79;21229;-75
2021/06/04 07:40:45;;;;;;;16.52;4.45;;;;;;;22.01;52.17;101836.16;1805154;79;21298;-75
2021/06/04 07:43:23;;;;;;;13.62;4.15;;;;;;;21.88;52.59;101842.02;1804548;79;21435;-73
2021/06/04 07:45:56;;;;;;;11.70;3.45;;;;;;;21.78;52.43;101843.61;1805597;79;21324;-75
2021/06/04 07:48:30;;;;;;;11.10;3.72;;;;;;;21.68;53.05;101833.01;1802023;79;21862;-72
2021/06/04 07:51:09;;;;;;;7.58;3.40;;;;;;;21.62;53.42;101831.38;1798603;79;21289;-73
2021/06/04 07:53:43;;;;;;;8.63;3.75;;;;;;;21.56;52.91;101837.69;1790229;79;21200;-74
2021/06/04 07:56:19;;;;;;;12.63;3.70;;;;;;;21.53;53.73;101826.16;1788387;79;21721;-76
2021/06/04 07:58:52;;;;;;;;;;;;;;;21.51;53.70;101836.34;1792483;79;21317;-76
2021/06/04 08:01:29;;;;;;;6.53;3.35;;;;;;;21.47;54.09;101833.03;1801737;79;20531;-73
2021/06/04 08:04:05;;;;;;;10.35;3.45;;;;;;;21.42;53.93;101838.19;1797056;79;21325;-75
2021/06/04 08:06:39;;;;;;;9.00;3.75;;;;;;;21.34;53.70;101832.38;1804205;79;21719;-74
2021/06/04 08:09:13;;;;;;;7.50;3.08;;;;;;;21.26;53.28;101832.47;1803085;79;21458;-75
2021/06/04 08:11:52;;;;;;;11.93;3.52;;;;;;;21.18;53.39;101833.16;1801601;79;21317;-72
2021/06/04 08:14:26;;;;;;;10.28;3.22;;;;;;;21.12;52.82;101834.92;1800885;79;21376;-74
2021/06/04 08:17:07;;;;;;;10.60;3.98;;;;;;;21.04;51.83;101829.95;1799941;79;21187;-75
2021/06/04 08:19:41;;;;;;;12.20;3.95;;;;;;;21.01;52.33;101837.61;1799877;79;21366;-76
2021/06/04 08:22:19;;;;;;;15.18;3.50;;;;;;;21.01;50.62;101831.95;1800132;79;21293;-78
2021/06/04 08:24:53;;;;;;;9.80;3.92;;;;;;;21.02;50.89;101836.49;1797216;79;21352;-78
2021/06/04 08:27:27;;;;;;;7.20;3.12;;;;;;;21.05;50.17;101837.28;1799363;79;21187;-77
2021/06/04 08:30:01;;;;;;;8.27;3.27;;;;;;;21.07;49.67;101841.49;1795044;79;21285;-77
2021/06/04 08:32:39;;;;;;;12.18;3.27;;;;;;;21.12;49.12;101839.17;1797343;79;22452;-76
2021/06/04 08:35:12;;;;;;;11.85;3.17;;;;;;;21.19;49.14;101836.25;1800751;79;21320;-77
2021/06/04 08:37:45;;;;;;;7.25;2.50;;;;;;;21.30;48.56;101834.97;1800357;79;21364;-75
2021/06/04 08:40:26;;;;;;;5.87;2.85;;;;;;;21.42;48.09;101845.26;1799554;79;21388;-78
2021/06/04 08:43:21;;;;;;;13.30;3.20;;;;;;;21.48;46.95;101842.63;1801658;79;21360;-78
2021/06/04 08:46:33;;;;;;;8.13;2.80;;;;;;;21.54;48.17;101845.65;1800369;79;21376;-78
2021/06/04 08:49:27;;;;;;;8.35;2.80;;;;;;;21.59;47.33;101841.89;1802469;78;21384;-77
2021/06/04 08:52:34;;;;;;;3.92;2.70;;;;;;;21.64;47.70;101843.23;1799542;79;21668;-77
2021/06/04 08:55:30;;;;;;;8.60;2.98;;;;;;;21.66;48.53;101845.17;1800927;79;21279;-75
2021/06/04 08:58:43;;;;;;;10.32;2.87;;;;;;;21.64;48.29;101840.41;1802109;79;21328;-77
2021/06/04 09:01:53;;;;;;;7.75;3.02;;;;;;;21.60;48.77;101847.81;1800677;79;21874;-76
2021/06/04 09:04:56;;;;;;;5.55;2.72;;;;;;;21.60;47.87;101836.50;1799343;79;21282;-73
2021/06/04 09:07:38;;;;;;;4.72;2.42;;;;;;;21.64;48.31;101839.00;1797059;79;21222;-77
2021/06/04 09:10:22;;;;;;;11.20;2.95;;;;;;;21.66;48.60;101833.87;1796903;79;21419;-78
2021/06/04 09:13:16;;;;;;;;;;;;;;;21.71;48.42;101847.37;1804956;79;21292;-75
2021/06/04 09:15:48;;;;;;;6.00;2.80;;;;;;;21.77;48.28;101845.33;1746840;82;20335;-79
2021/06/04 09:18:25;;;;;;;8.58;2.58;;;;;;;21.79;47.73;101843.02;1800835;79;21313;-77
2021/06/04 09:21:05;;;;;;;8.63;2.77;;;;;;;21.81;48.33;101840.72;1793201;79;21667;-76
2021/06/04 09:23:41;;;;;;;10.08;2.65;;;;;;;21.90;46.45;101843.13;1787921;79;21273;-76
2021/06/04 09:26:17;;;;;;;11.35;3.30;;;;;;;21.96;46.96;101834.27;1796325;79;21301;-76
2021/06/04 09:29:13;;;;;;;3.00;2.20;;;;;;;22.09;46.74;101843.37;1754925;81;21408;-75
2021/06/04 09:31:57;;;;;;;11.60;2.45;;;;;;;22.20;46.51;101840.61;1702938;82;21337;-73
2021/06/04 09:34:36;;;;;;;12.03;2.17;;;;;;;22.30;45.82;101835.38;1756848;81;21392;-75
2021/06/04 09:37:37;;;;;;;8.18;2.83;;;;;;;22.36;45.66;101841.20;1759579;81;21183;-75
2021/06/04 09:40:30;;;;;;;8.08;2.85;;;;;;;22.39;44.19;101836.33;1737412;82;21196;-76
2021/06/04 09:43:13;;;;;;;11.22;2.70;;;;;;;22.33;43.22;101837.00;1733078;81;21681;-76
2021/06/04 09:46:04;;;;;;;7.92;2.30;;;;;;;22.30;44.24;101841.03;1724517;81;21206;-76
2021/06/04 09:49:02;;;;;;;5.17;2.60;;;;;;;22.33;43.72;101837.56;1719153;82;21290;-73
2021/06/04 09:51:38;;;;;;;9.65;3.27;;;;;;;22.38;44.71;101827.57;1755222;80;21344;-74
2021/06/04 09:54:27;;;;;;;8.38;2.70;;;;;;;22.51;45.51;101835.28;1738772;81;21357;-75
2021/06/04 09:57:15;;;;;;;4.70;2.77;;;;;;;22.63;45.50;101837.03;1737362;82;21337;-75
2021/06/04 09:59:48;;;;;;;6.92;2.22;;;;;;;22.68;44.11;101834.92;1700276;84;21860;-76
2021/06/04 10:02:36;;;;;;;9.18;2.60;;;;;;;22.63;42.75;101837.03;1699820;84;21199;-78
2021/06/04 10:05:20;;;;;;;10.75;2.65;;;;;;;22.52;42.34;101844.03;1699764;84;21433;-77
2021/06/04 10:08:05;;;;;;;;;;;;;;;22.39;42.43;101851.89;1702234;84;21215;-77
2021/06/04 10:10:43;;;;;;;13.10;2.70;;;;;;;22.25;42.69;101852.44;1727902;82;20222;-76
2021/06/04 10:13:35;;;;;;;5.28;2.27;;;;;;;22.13;43.12;101854.32;1725740;83;21243;-76
2021/06/04 10:16:39;;;;;;;5.70;2.40;;;;;;;22.05;43.21;101846.55;1705036;83;21677;-78
2021/06/04 10:19:01;;;;;;;12.23;2.80;;;;;;;21.97;43.43;101854.89;1749154;81;21784;-76
2021/06/04 10:21:42;;;;;;;6.50;2.60;;;;;;;21.94;43.39;101849.27;1741771;81;21151;-76
2021/06/04 10:24:29;;;;;;;8.90;2.58;;;;;;;21.90;42.98;101848.23;1771576;79;21324;-76
2021/06/04 10:27:09;;;;;;;14.87;3.10;;;;;;;21.91;42.54;101854.70;1795003;79;21301;-74
2021/06/04 10:29:42;;;;;;;8.85;2.33;;;;;;;21.91;42.75;101853.30;1799354;79;21313;-75
2021/06/04 10:32:18;;;;;;;7.75;1.92;;;;;;;21.92;42.79;101853.55;1799176;79;21312;-76
2021/06/04 10:35:25;;;;;;;6.55;2.62;;;;;;;21.91;42.57;101849.91;1796877;79;21253;-74
2021/06/04 10:38:21;;;;;;;4.78;2.42;;;;;;;21.92;42.31;101855.83;1797978;79;21380;-74
2021/06/04 10:41:09;;;;;;;5.12;2.47;;;;;;;21.97;43.25;101853.48;1797209;79;21193;-75
2021/06/04 10:44:02;;;;;;;14.10;2.40;;;;;;;22.05;42.78;101851.35;1715823;83;21807;-72
2021/06/04 10:46:55;;;;;;;6.58;2.20;;;;;;;22.13;40.15;101843.00;1707664;83;21873;-74
2021/06/04 10:49:39;;;;;;;10.72;2.72;;;;;;;22.14;40.16;101856.00;1717729;83;21379;-75
2021/06/04 10:52:50;;;;;;;9.33;3.45;;;;;;;22.12;40.91;101849.81;1700781;83;21352;-75
2021/06/04 10:55:54;;;;;;;13.78;2.25;;;;;;;22.12;41.22;101853.23;1661203;85;21894;-74
2021/06/04 10:59:04;;;;;;;7.17;2.47;;;;;;;22.12;40.73;101851.83;1712598;83;21341;-73
2021/06/04 11:01:52;;;;;;;8.43;2.50;;;;;;;22.05;41.27;101852.20;1728201;79;21850;-74
2021/06/04 11:04:36;;;;;;;5.40;2.10;;;;;;;22.02;41.59;101847.74;1773524;79;21286;-75
2021/06/04 11:07:43;;;;;;;6.87;2.60;;;;;;;22.04;42.47;101850.53;1799888;78;21158;-76
2021/06/04 11:10:27;;;;;;;6.85;3.12;;;;;;;22.13;42.33;101851.49;1801172;79;21199;-74
2021/06/04 11:13:26;;;;;;;7.12;2.72;;;;;;;22.24;42.90;101854.42;1802184;79;21199;-73
2021/06/04 11:16:05;;;;;;;4.70;2.45;;;;;;;22.35;43.61;101850.83;1797824;79;21222;-75
2021/06/04 11:18:43;;;;;;;13.93;2.77;;;;;;;22.42;43.04;101846.45;1799857;79;21313;-74
2021/06/04 11:21:42;;;;;;;10.72;3.00;;;;;;;22.43;42.77;101847.34;1804029;79;21850;-75
2021/06/04 11:24:42;;;;;;;5.70;2.45;;;;;;;22.42;42.81;101865.41;1797368;79;21368;-73
2021/06/04 11:27:27;;;;;;;6.28;2.50;;;;;;;22.38;43.32;101855.29;1732798;82;22606;-72
2021/06/04 11:30:01;;;;;;;12.37;2.50;;;;;;;22.28;42.23;101847.56;1800851;79;21234;-73
2021/06/04 11:32:40;;;;;;;4.95;2.05;;;;;;;22.19;42.46;101843.77;1790243;79;21321;-72
2021/06/04 11:35:22;;;;;;;10.95;2.70;;;;;;;22.17;41.47;101851.71;1795138;80;21251;-72
2021/06/04 11:38:15;;;;;;;7.45;2.55;;;;;;;22.23;42.33;101843.40;1791835;79;21788;-71
2021/06/04 11:40:54;;;;;;;5.12;2.30;;;;;;;22.31;42.22;101837.05;1798382;80;21348;-72
2021/06/04 11:43:32;;;;;;;10.60;2.47;;;;;;;22.39;42.99;101837.17;1799843;79;21333;-72
2021/06/04 11:46:31;;;;;;;10.08;2.45;;;;;;;22.46;43.23;101839.05;1799864;80;21329;-71
2021/06/04 11:49:17;;;;;;;14.10;2.77;;;;;;;22.49;42.19;101835.58;1799924;79;21194;-70
2021/06/04 11:51:52;;;;;;;15.10;2.65;;;;;;;22.44;41.76;101846.17;1799986;79;21732;-73
2021/06/04 11:54:40;;;;;;;16.10;2.92;;;;;;;22.38;42.32;101845.38;1799700;79;21304;-73
2021/06/04 11:57:52;;;;;;;10.72;2.75;;;;;;;22.36;43.43;101835.55;1791858;80;21838;-69
2021/06/04 12:00:40;;;;;;;9.00;2.30;;;;;;;22.36;43.60;101844.04;1794150;80;21851;-74
2021/06/04 12:03:18;;;;;;;7.30;2.92;;;;;;;22.33;43.56;101846.06;1783895;79;21779;-69
2021/06/04 12:05:55;;;;;;;10.15;3.35;;;;;;;22.32;43.69;101840.14;1785254;80;21829;-70
2021/06/04 12:08:38;;;;;;;15.35;3.45;;;;;;;22.32;44.10;101839.55;1786674;80;21711;-71
2021/06/04 12:11:25;;;;;;;6.80;3.08;;;;;;;22.34;43.98;101837.27;1789461;79;21700;-71
2021/06/04 12:14:06;;;;;;;5.35;2.67;;;;;;;22.37;44.28;101845.12;1794681;79;21170;-69
2021/06/04 12:16:39;;;;;;;4.97;2.42;;;;;;;22.41;44.60;101836.84;1794403;79;21313;-73
2021/06/04 12:19:34;;;;;;;9.08;2.55;;;;;;;22.49;43.92;101844.67;1796983;79;21724;-70
2021/06/04 12:22:30;;;;;;;5.95;2.10;;;;;;;22.53;43.53;101832.97;1794080;80;21344;-74
2021/06/04 12:25:05;;;;;;;4.10;2.75;;;;;;;22.60;43.36;101837.64;1796934;80;21317;-72